Time;durP1;ratioP1;P1;durP2;ratioP2;P2;SDS_P1;SDS_P2;PMS_P1;PMS_P2;Temp;Humidity;BMP_temperature;BMP_pressure;BME280_temperature;BME280_humidity;BME280_pressure;Samples;Min_cycle;Max_cycle;Signal;HPM_P1;HPM_P2
2021/11/15 00:01:03;;;;;;;44.08;25.20;;;8.90;99.90;;;;;;5034305;28;20231;-77
2021/11/15 00:03:29;;;;;;;49.33;25.58;;;8.80;99.90;;;;;;5034711;28;20164;-77
2021/11/15 00:05:55;;;;;;;49.17;26.48;;;8.80;99.90;;;;;;5034530;28;20164;-77
2021/11/15 00:08:21;;;;;;;47.85;26.15;;;8.90;99.90;;;;;;5034678;28;20620;-77
2021/11/15 00:10:46;;;;;;;42.95;24.67;;;8.90;99.90;;;;;;5034216;28;20203;-77
2021/11/15 00:13:13;;;;;;;44.05;25.08;;;8.70;99.90;;;;;;5033999;28;20216;-78
2021/11/15 00:15:38;;;;;;;46.90;24.25;;;8.80;99.90;;;;;;5033942;28;20187;-77
2021/11/15 00:18:06;;;;;;;46.08;25.23;;;8.90;99.90;;;;;;5032878;28;20272;-77
2021/11/15 00:20:33;;;;;;;41.60;23.63;;;9.10;99.90;;;;;;5034095;28;20211;-86
2021/11/15 00:22:59;;;;;;;44.45;24.60;;;8.80;99.90;;;;;;5034315;28;20195;-77
2021/11/15 00:25:24;;;;;;;47.25;25.63;;;8.90;99.90;;;;;;5034027;28;20211;-77
2021/11/15 00:27:50;;;;;;;48.92;26.45;;;8.60;99.90;;;;;;5033671;28;20247;-77
2021/11/15 00:30:16;;;;;;;42.60;24.00;;;8.60;99.90;;;;;;5033868;28;20193;-77
2021/11/15 00:32:43;;;;;;;42.58;24.23;;;8.50;99.90;;;;;;5033971;28;20213;-78
2021/11/15 00:35:10;;;;;;;49.47;25.25;;;8.50;99.90;;;;;;5032794;28;20263;-77
2021/11/15 00:37:36;;;;;;;42.75;26.20;;;8.70;99.90;;;;;;5033569;28;20213;-77
2021/11/15 00:40:05;;;;;;;45.35;25.23;;;8.80;99.90;;;;;;5033472;28;20242;-77
2021/11/15 00:42:31;;;;;;;43.15;24.10;;;8.80;99.90;;;;;;5033535;28;20199;-78
2021/11/15 00:44:57;;;;;;;40.50;23.42;;;8.60;99.90;;;;;;5033784;28;20250;-77
2021/11/15 00:47:22;;;;;;;48.08;25.80;;;8.50;99.90;;;;;;5033684;28;20168;-77
2021/11/15 00:49:48;;;;;;;48.63;25.25;;;8.50;99.90;;;;;;5033674;28;20229;-77
2021/11/15 00:52:14;;;;;;;52.83;25.88;;;8.50;99.90;;;;;;5032205;28;20180;-78
2021/11/15 00:54:40;;;;;;;50.90;26.30;;;8.20;99.90;;;;;;5033986;28;20354;-77
2021/11/15 00:57:05;;;;;;;48.83;24.63;;;8.10;99.90;;;;;;5033269;28;20616;-78
2021/11/15 00:59:32;;;;;;;43.70;25.33;;;8.10;99.90;;;;;;5033999;28;20249;-77
2021/11/15 01:01:59;;;;;;;49.67;26.33;;;8.10;99.90;;;;;;5033332;28;20184;-77
2021/11/15 01:04:25;;;;;;;46.75;26.42;;;7.90;99.90;;;;;;5033591;28;20530;-77
2021/11/15 01:06:53;;;;;;;48.20;26.10;;;8.10;99.90;;;;;;5033192;28;20271;-77
2021/11/15 01:09:19;;;;;;;44.78;26.10;;;8.10;99.90;;;;;;5032930;28;20620;-77
2021/11/15 01:11:45;;;;;;;48.38;26.63;;;7.90;99.90;;;;;;5033318;28;20180;-77
2021/11/15 01:14:11;;;;;;;46.55;26.55;;;8.00;99.90;;;;;;5033279;28;20514;-77
2021/11/15 01:16:37;;;;;;;49.28;25.95;;;7.90;99.90;;;;;;5033214;28;20172;-77
2021/11/15 01:19:03;;;;;;;47.65;25.40;;;7.90;99.90;;;;;;5033141;28;20179;-77
2021/11/15 01:21:29;;;;;;;50.45;25.83;;;7.90;99.90;;;;;;5033000;28;20192;-77
2021/11/15 01:23:57;;;;;;;56.70;27.75;;;7.90;99.90;;;;;;5033174;28;20168;-77
2021/11/15 01:26:23;;;;;;;47.42;26.25;;;8.00;99.90;;;;;;5033134;28;20221;-78
2021/11/15 01:28:49;;;;;;;48.75;27.02;;;8.00;99.90;;;;;;5033168;28;20250;-78
2021/11/15 01:31:16;;;;;;;48.75;26.38;;;8.10;99.90;;;;;;5032817;28;20192;-77
2021/11/15 01:33:42;;;;;;;50.15;24.58;;;8.20;99.90;;;;;;5032994;28;20225;-80
2021/11/15 01:36:08;;;;;;;45.85;26.55;;;8.20;99.90;;;;;;5032664;28;20176;-78
2021/11/15 01:38:34;;;;;;;48.67;25.35;;;8.10;99.90;;;;;;5031530;28;20193;-77
2021/11/15 01:41:00;;;;;;;55.63;25.88;;;8.20;99.90;;;;;;5032387;28;20258;-78
2021/11/15 01:43:26;;;;;;;48.22;26.77;;;8.40;99.90;;;;;;5032583;28;20168;-78
2021/11/15 01:45:52;;;;;;;50.05;24.92;;;8.10;99.90;;;;;;5032839;28;20208;-78
2021/11/15 01:48:19;;;;;;;54.03;26.55;;;8.20;99.90;;;;;;5032644;28;20183;-78
2021/11/15 01:50:46;;;;;;;49.30;26.33;;;8.30;99.90;;;;;;5031460;28;20196;-77
2021/11/15 01:53:13;;;;;;;44.85;23.58;;;8.50;99.90;;;;;;5032657;28;20172;-77
2021/11/15 01:55:41;;;;;;;53.33;26.52;;;8.50;99.90;;;;;;5031783;28;20270;-78
2021/11/15 01:58:09;;;;;;;52.17;26.35;;;8.50;99.90;;;;;;5032642;28;20160;-78
2021/11/15 02:00:51;;;;;;;44.47;24.90;;;8.50;99.90;;;;;;5031405;28;20221;-78
2021/11/15 02:03:19;;;;;;;49.53;25.20;;;8.30;99.90;;;;;;5032466;28;20156;-78
2021/11/15 02:05:45;;;;;;;63.95;26.85;;;8.20;99.90;;;;;;5032687;28;20198;-78
2021/11/15 02:08:12;;;;;;;52.92;26.65;;;8.20;99.90;;;;;;5032542;28;20171;-78
2021/11/15 02:10:38;;;;;;;45.60;25.73;;;8.10;99.90;;;;;;5032106;28;20188;-78
2021/11/15 02:13:05;;;;;;;49.67;26.58;;;8.10;99.90;;;;;;5032887;28;20612;-78
2021/11/15 02:15:31;;;;;;;55.20;27.10;;;8.10;99.90;;;;;;5032509;28;20167;-77
2021/11/15 02:17:57;;;;;;;58.30;27.80;;;8.00;99.90;;;;;;5032125;28;20171;-77
2021/11/15 02:20:23;;;;;;;49.20;26.52;;;8.00;99.90;;;;;;5033005;28;20568;-78
2021/11/15 02:22:51;;;;;;;59.80;27.27;;;8.00;99.90;;;;;;5035239;28;20628;-89
2021/11/15 02:25:22;;;;;;;54.35;26.60;;;8.00;99.90;;;;;;5036553;28;20172;-78
2021/11/15 02:27:48;;;;;;;57.28;28.02;;;8.10;99.90;;;;;;5036228;28;20164;-77
2021/11/15 02:30:25;;;;;;;50.55;28.10;;;8.00;99.90;;;;;;5036361;28;20200;-77
2021/11/15 02:32:50;;;;;;;50.97;26.40;;;7.90;99.90;;;;;;5036226;28;20662;-77
2021/11/15 02:35:17;;;;;;;57.85;27.52;;;7.80;99.90;;;;;;5036251;28;20178;-77
2021/11/15 02:37:43;;;;;;;63.30;28.58;;;7.70;99.90;;;;;;5036322;28;20170;-77
2021/11/15 02:40:12;;;;;;;47.47;26.00;;;7.60;99.90;;;;;;5035930;28;20199;-77
2021/11/15 02:42:39;;;;;;;56.80;28.00;;;7.70;99.90;;;;;;5036179;28;20171;-77
2021/11/15 02:45:07;;;;;;;51.70;27.95;;;7.50;99.90;;;;;;5036126;28;20192;-77
2021/11/15 02:47:33;;;;;;;61.05;30.90;;;7.70;99.90;;;;;;5035911;28;20162;-78
2021/11/15 02:49:59;;;;;;;55.15;28.70;;;7.60;99.90;;;;;;5035809;28;20259;-77
2021/11/15 02:52:25;;;;;;;56.33;28.98;;;7.70;99.90;;;;;;5035653;28;20178;-78
2021/11/15 02:54:51;;;;;;;60.67;28.83;;;7.60;99.90;;;;;;5035781;28;20232;-77
2021/11/15 02:57:21;;;;;;;59.92;28.67;;;7.60;99.90;;;;;;5036125;28;20160;-83
2021/11/15 02:59:47;;;;;;;63.78;29.85;;;7.60;99.90;;;;;;5035765;28;20196;-77
2021/11/15 03:02:14;;;;;;;60.63;28.48;;;7.60;99.90;;;;;;5035517;28;20176;-78
2021/11/15 03:04:43;;;;;;;54.38;28.27;;;7.70;99.90;;;;;;5035760;28;20164;-79
2021/11/15 03:07:08;;;;;;;53.55;28.85;;;7.80;99.90;;;;;;5035783;28;20160;-80
2021/11/15 03:09:34;;;;;;;62.15;29.90;;;7.70;99.90;;;;;;5035615;28;20175;-78
2021/11/15 03:11:59;;;;;;;68.25;31.63;;;7.80;99.90;;;;;;5036059;28;20195;-77
2021/11/15 03:14:25;;;;;;;61.72;29.55;;;7.90;99.90;;;;;;5035587;28;20164;-78
2021/11/15 03:16:51;;;;;;;57.92;29.95;;;7.90;99.90;;;;;;5033902;28;20706;-77
2021/11/15 03:19:16;;;;;;;65.85;30.92;;;7.70;99.90;;;;;;5035146;28;20627;-78
2021/11/15 03:21:42;;;;;;;63.47;29.85;;;7.60;99.90;;;;;;5035219;28;20489;-78
2021/11/15 03:24:09;;;;;;;56.50;28.65;;;7.50;99.90;;;;;;5035290;28;20182;-78
2021/11/15 03:26:35;;;;;;;65.30;27.48;;;7.70;99.90;;;;;;5035587;28;20168;-78
2021/11/15 03:29:00;;;;;;;60.72;28.30;;;7.70;99.90;;;;;;5035318;28;20176;-77
2021/11/15 03:31:30;;;;;;;58.05;28.80;;;7.70;99.90;;;;;;5034929;28;20191;-77
2021/11/15 03:34:03;;;;;;;61.83;29.00;;;7.70;99.90;;;;;;5035153;28;20644;-78
2021/11/15 03:36:28;;;;;;;57.75;27.77;;;7.90;99.90;;;;;;5035016;28;20631;-77
2021/11/15 03:38:56;;;;;;;53.55;27.77;;;7.90;99.90;;;;;;5035196;28;20191;-78
2021/11/15 03:41:23;;;;;;;58.13;28.17;;;7.90;99.90;;;;;;5034861;28;20737;-78
2021/11/15 03:43:49;;;;;;;59.78;27.90;;;7.90;99.90;;;;;;5034784;28;20184;-77
2021/11/15 03:46:16;;;;;;;59.50;28.08;;;7.90;99.90;;;;;;5035132;28;20204;-78
2021/11/15 03:48:42;;;;;;;55.40;26.92;;;7.80;99.90;;;;;;5034771;28;20283;-78
2021/11/15 03:51:07;;;;;;;63.08;29.05;;;7.90;99.90;;;;;;5036311;28;20262;-77
2021/11/15 03:53:36;;;;;;;68.60;32.30;;;8.00;99.90;;;;;;5036430;28;20262;-77
2021/11/15 03:56:05;;;;;;;69.20;30.50;;;8.10;99.90;;;;;;5035425;28;20168;-78
2021/11/15 03:58:31;;;;;;;62.08;28.92;;;8.10;99.90;;;;;;5033451;28;20176;-77
2021/11/15 04:00:58;;;;;;;51.80;28.67;;;8.00;99.90;;;;;;5033242;28;20498;-78
2021/11/15 04:03:34;;;;;;;65.22;29.10;;;8.10;99.90;;;;;;5034704;28;20624;-78
2021/11/15 04:06:21;;;;;;;55.70;28.52;;;8.20;99.90;;;;;;5034401;28;20207;-78
2021/11/15 04:08:47;;;;;;;50.83;27.23;;;8.20;99.90;;;;;;5034175;28;20521;-78
2021/11/15 04:11:13;;;;;;;54.97;27.27;;;8.30;99.90;;;;;;5034216;28;20198;-78
2021/11/15 04:13:41;;;;;;;64.45;30.48;;;8.40;99.90;;;;;;5034251;28;20160;-77
2021/11/15 04:16:10;;;;;;;52.97;27.58;;;8.50;99.90;;;;;;5034347;28;20168;-78
2021/11/15 04:18:41;;;;;;;52.55;26.98;;;8.70;99.90;;;;;;5033101;28;20536;-77
2021/11/15 04:21:08;;;;;;;52.72;27.42;;;8.60;99.90;;;;;;5033793;28;20209;-77
2021/11/15 04:23:34;;;;;;;56.58;28.38;;;8.70;99.90;;;;;;5034095;28;20243;-77
2021/11/15 04:26:00;;;;;;;67.70;28.80;;;8.60;99.90;;;;;;5034047;28;20245;-77
2021/11/15 04:28:26;;;;;;;56.53;27.63;;;8.60;99.90;;;;;;5034354;28;20175;-77
2021/11/15 04:30:52;;;;;;;52.33;27.77;;;8.60;99.90;;;;;;5034274;28;20378;-77
2021/11/15 04:33:18;;;;;;;56.15;29.58;;;8.70;99.90;;;;;;5034035;28;20279;-77
2021/11/15 04:35:44;;;;;;;54.20;29.23;;;8.80;99.90;;;;;;5033811;28;20168;-77
2021/11/15 04:38:10;;;;;;;50.05;28.40;;;8.80;99.90;;;;;;5033870;28;20172;-77
2021/11/15 04:40:37;;;;;;;59.67;29.33;;;8.80;99.90;;;;;;5033669;28;20219;-78
2021/11/15 04:43:03;;;;;;;57.85;30.27;;;8.80;99.90;;;;;;5032902;28;20639;-77
2021/11/15 04:45:29;;;;;;;55.03;28.45;;;8.90;99.90;;;;;;5033687;28;20172;-77
2021/11/15 04:47:55;;;;;;;58.13;30.63;;;8.90;99.90;;;;;;5033666;28;20308;-77
2021/11/15 04:50:21;;;;;;;59.42;31.33;;;9.00;99.90;;;;;;5033539;28;20634;-77
2021/11/15 04:52:47;;;;;;;61.70;31.73;;;8.80;99.90;;;;;;5033803;28;20176;-77
2021/11/15 04:55:17;;;;;;;70.15;32.33;;;8.80;99.90;;;;;;5032817;28;20210;-77
2021/11/15 04:57:43;;;;;;;71.13;31.25;;;8.80;99.90;;;;;;5034003;28;20195;-77
2021/11/15 05:00:14;;;;;;;72.10;32.67;;;8.80;99.90;;;;;;5032088;28;20207;-77
2021/11/15 05:02:39;;;;;;;67.82;32.67;;;8.90;99.90;;;;;;5033294;28;20163;-77
2021/11/15 05:05:06;;;;;;;69.65;33.13;;;8.90;99.90;;;;;;5033256;28;20596;-77
2021/11/15 05:07:32;;;;;;;64.88;31.38;;;8.90;99.90;;;;;;5033415;28;20526;-78
2021/11/15 05:09:58;;;;;;;73.93;31.02;;;8.90;99.90;;;;;;5033652;28;20168;-77
2021/11/15 05:12:24;;;;;;;70.30;32.97;;;9.00;99.90;;;;;;5033432;28;20174;-77
2021/11/15 05:14:50;;;;;;;67.70;31.98;;;9.00;99.90;;;;;;5031952;28;20180;-77
2021/11/15 05:17:15;;;;;;;70.55;34.42;;;9.00;99.90;;;;;;5033569;28;20616;-78
2021/11/15 05:19:43;;;;;;;68.20;34.28;;;9.00;99.90;;;;;;5032832;28;20230;-77
2021/11/15 05:22:09;;;;;;;77.20;35.65;;;9.20;99.90;;;;;;5033238;28;20655;-77
2021/11/15 05:24:35;;;;;;;73.38;35.30;;;9.20;99.90;;;;;;5032983;28;20191;-77
2021/11/15 05:27:01;;;;;;;70.70;34.90;;;9.50;99.90;;;;;;5033010;28;20187;-77
2021/11/15 05:29:26;;;;;;;79.70;37.58;;;9.30;99.90;;;;;;5033166;28;20183;-77
2021/11/15 05:31:52;;;;;;;84.75;37.42;;;9.20;99.90;;;;;;5033017;28;20637;-77
2021/11/15 05:34:18;;;;;;;74.88;36.45;;;9.20;99.90;;;;;;5033016;28;20199;-77
2021/11/15 05:36:43;;;;;;;78.88;36.35;;;9.20;99.90;;;;;;5033193;28;20582;-77
2021/11/15 05:39:09;;;;;;;79.55;36.83;;;9.40;99.90;;;;;;5033148;28;20235;-77
2021/11/15 05:41:35;;;;;;;82.15;38.10;;;9.60;99.90;;;;;;5032963;28;20694;-77
2021/11/15 05:44:01;;;;;;;100.78;41.10;;;9.60;99.90;;;;;;5033258;28;20168;-78
2021/11/15 05:46:29;;;;;;;84.13;40.15;;;9.30;99.90;;;;;;5033022;28;20183;-78
2021/11/15 05:48:54;;;;;;;83.32;38.83;;;9.10;99.90;;;;;;5032974;28;20192;-78
2021/11/15 05:51:20;;;;;;;95.00;40.85;;;9.00;99.90;;;;;;5032814;28;20269;-78
2021/11/15 05:53:46;;;;;;;88.43;39.35;;;9.00;99.90;;;;;;5032548;28;20172;-78
2021/11/15 05:56:13;;;;;;;92.55;41.08;;;8.90;99.90;;;;;;5032801;28;20161;-78
2021/11/15 05:58:38;;;;;;;95.78;42.55;;;8.90;99.90;;;;;;5032822;28;20156;-78
2021/11/15 06:01:04;;;;;;;95.80;42.80;;;8.90;99.90;;;;;;5032468;28;20265;-77
2021/11/15 06:03:30;;;;;;;87.28;40.53;;;8.90;99.90;;;;;;5032819;28;20160;-78
2021/11/15 06:05:56;;;;;;;89.25;42.42;;;8.90;99.90;;;;;;5032597;28;20198;-77
2021/11/15 06:08:21;;;;;;;84.18;39.00;;;9.10;99.90;;;;;;5032626;28;20754;-78
2021/11/15 06:10:47;;;;;;;100.88;41.03;;;9.10;99.90;;;;;;5031071;28;20279;-78
2021/11/15 06:13:15;;;;;;;94.15;43.10;;;9.30;99.90;;;;;;5032810;28;20171;-80
2021/11/15 06:15:41;;;;;;;84.18;38.75;;;9.30;99.90;;;;;;5032628;28;20167;-78
2021/11/15 06:18:06;;;;;;;103.82;44.05;;;9.10;99.90;;;;;;5032491;28;20179;-78
2021/11/15 06:20:32;;;;;;;85.05;40.78;;;9.10;99.90;;;;;;5031455;28;20219;-77
2021/11/15 06:22:58;;;;;;;93.10;41.30;;;8.90;99.90;;;;;;5032801;28;20667;-78
2021/11/15 06:25:24;;;;;;;88.57;41.15;;;8.90;99.90;;;;;;5033129;28;20172;-78
2021/11/15 06:27:50;;;;;;;93.10;42.05;;;9.00;99.90;;;;;;5031398;28;20172;-78
2021/11/15 06:30:17;;;;;;;86.13;40.70;;;9.10;99.90;;;;;;5032544;28;20204;-78
2021/11/15 06:32:44;;;;;;;95.82;42.70;;;9.10;99.90;;;;;;5032476;28;20187;-78
2021/11/15 06:35:10;;;;;;;94.88;41.15;;;9.00;99.90;;;;;;5032623;28;20255;-77
2021/11/15 06:37:37;;;;;;;85.80;40.92;;;9.10;99.90;;;;;;5032529;28;20167;-78
2021/11/15 06:40:05;;;;;;;96.13;41.53;;;9.00;99.90;;;;;;5033259;28;20287;-85
2021/11/15 06:42:30;;;;;;;86.60;41.20;;;8.90;99.90;;;;;;5033399;28;20632;-78
2021/11/15 06:44:56;;;;;;;93.05;41.40;;;9.00;99.90;;;;;;5032541;28;20325;-76
2021/11/15 06:47:22;;;;;;;89.30;41.78;;;8.90;99.90;;;;;;5026356;28;20176;-78
2021/11/15 06:49:53;;;;;;;88.32;40.22;;;9.00;99.90;;;;;;5012931;28;20169;-78
2021/11/15 06:52:20;;;;;;;85.78;40.92;;;9.00;99.90;;;;;;5012471;28;20173;-82
2021/11/15 06:54:46;;;;;;;95.50;44.25;;;8.90;99.90;;;;;;5012714;28;20176;-78
2021/11/15 06:57:12;;;;;;;93.10;44.42;;;9.00;99.90;;;;;;5011840;28;20625;-78
2021/11/15 06:59:38;;;;;;;95.90;44.17;;;9.30;99.90;;;;;;5011595;28;20283;-78
2021/11/15 07:02:03;;;;;;;93.60;43.13;;;9.50;99.90;;;;;;5012175;28;20557;-78
2021/11/15 07:04:29;;;;;;;93.03;42.15;;;9.40;99.90;;;;;;5012282;28;20165;-77
2021/11/15 07:06:55;;;;;;;90.38;40.67;;;9.40;99.90;;;;;;5013779;28;20225;-80
2021/11/15 07:09:21;;;;;;;87.30;42.25;;;9.20;99.90;;;;;;5015844;28;20164;-78
2021/11/15 07:11:47;;;;;;;93.78;42.95;;;9.00;99.90;;;;;;5015790;28;20262;-81
2021/11/15 07:14:13;;;;;;;90.88;41.88;;;9.10;99.90;;;;;;5016251;28;20587;-78
2021/11/15 07:16:38;;;;;;;86.93;41.90;;;9.30;99.90;;;;;;5013688;28;20207;-82
2021/11/15 07:19:04;;;;;;;88.05;43.13;;;9.30;99.90;;;;;;5010573;28;20636;-78
2021/11/15 07:21:31;;;;;;;82.47;40.83;;;9.40;99.90;;;;;;5029186;28;20207;-79
2021/11/15 07:23:56;;;;;;;90.93;40.60;;;9.40;99.90;;;;;;5032439;28;20164;-78
2021/11/15 07:26:23;;;;;;;88.20;41.88;;;9.40;99.90;;;;;;5031618;28;20707;-78
2021/11/15 07:28:50;;;;;;;96.00;40.22;;;9.20;99.90;;;;;;5034987;28;20160;-79
2021/11/15 07:31:16;;;;;;;79.78;38.15;;;9.20;99.90;;;;;;5033736;28;20200;-77
2021/11/15 07:33:42;;;;;;;78.53;38.17;;;9.30;99.90;;;;;;5034381;28;20186;-79
2021/11/15 07:36:09;;;;;;;80.78;37.53;;;9.40;99.90;;;;;;5034061;28;20605;-80
2021/11/15 07:38:34;;;;;;;78.22;37.55;;;9.40;99.90;;;;;;5034639;28;20226;-82
2021/11/15 07:41:00;;;;;;;76.85;37.63;;;9.40;99.90;;;;;;5035840;28;20687;-79
2021/11/15 07:43:26;;;;;;;81.28;37.95;;;9.30;99.90;;;;;;5037502;28;20354;-78
2021/11/15 07:45:52;;;;;;;78.57;35.50;;;9.30;99.90;;;;;;5034538;28;20354;-77
2021/11/15 07:48:17;;;;;;;78.32;37.25;;;9.20;99.90;;;;;;5026626;28;20183;-78
2021/11/15 07:50:44;;;;;;;80.40;35.75;;;9.10;99.90;;;;;;5034459;28;20187;-77
2021/11/15 07:53:10;;;;;;;72.55;33.63;;;8.90;99.90;;;;;;5034741;28;20164;-78
2021/11/15 07:55:36;;;;;;;76.10;34.40;;;8.90;99.90;;;;;;5033954;28;20262;-78
2021/11/15 07:58:04;;;;;;;73.45;33.50;;;8.80;99.90;;;;;;5034764;28;20194;-77
2021/11/15 08:00:30;;;;;;;73.10;34.95;;;8.90;99.90;;;;;;5034035;28;20242;-77
2021/11/15 08:02:56;;;;;;;75.15;35.63;;;9.00;99.90;;;;;;5034751;28;20176;-78
2021/11/15 08:05:23;;;;;;;78.93;35.30;;;9.20;99.90;;;;;;5034965;28;20175;-78
2021/11/15 08:07:49;;;;;;;74.55;33.72;;;9.10;99.90;;;;;;5035084;28;20164;-78
2021/11/15 08:10:18;;;;;;;69.13;33.50;;;9.10;99.90;;;;;;5034205;28;20186;-78
2021/11/15 08:12:47;;;;;;;68.82;32.40;;;9.00;99.90;;;;;;5035566;28;20168;-94
2021/11/15 08:15:15;;;;;;;76.78;34.13;;;9.00;99.90;;;;;;5034214;28;20271;-81
2021/11/15 08:17:45;;;;;;;69.53;32.55;;;9.10;99.90;;;;;;5037336;28;20594;-78
2021/11/15 08:20:27;;;;;;;70.55;34.22;;;9.20;99.90;;;;;;5037560;28;20204;-79
2021/11/15 08:22:56;;;;;;;74.78;33.88;;;9.30;99.90;;;;;;5036423;28;20167;-80
2021/11/15 08:25:57;;;;;;;64.68;29.25;;;9.30;99.90;;;;;;5034372;28;20187;-77
2021/11/15 08:28:29;;;;;;;67.70;31.10;;;9.10;99.90;;;;;;5034769;28;20624;-84
2021/11/15 08:30:56;;;;;;;71.68;31.60;;;9.10;99.90;;;;;;5033115;28;20234;-79
2021/11/15 08:33:22;;;;;;;60.83;29.65;;;9.10;99.90;;;;;;5033745;28;20722;-79
2021/11/15 08:35:48;;;;;;;61.10;30.67;;;9.10;99.90;;;;;;5032879;28;20171;-78
2021/11/15 08:38:26;;;;;;;55.63;27.65;;;9.00;99.90;;;;;;5032566;28;20242;-79
2021/11/15 08:40:52;;;;;;;58.53;28.67;;;8.90;99.90;;;;;;5033924;28;20813;-78
2021/11/15 08:43:19;;;;;;;58.60;27.75;;;8.90;99.90;;;;;;5033122;28;20208;-77
2021/11/15 08:45:45;;;;;;;52.75;24.17;;;9.00;99.90;;;;;;5034032;28;20168;-78
2021/11/15 08:48:11;;;;;;;46.97;24.05;;;9.10;99.90;;;;;;5033741;28;20171;-77
2021/11/15 08:50:37;;;;;;;45.28;23.45;;;9.10;99.90;;;;;;5033885;28;20196;-78
2021/11/15 08:53:04;;;;;;;34.83;20.85;;;9.20;99.90;;;;;;5033929;28;20643;-79
2021/11/15 08:55:31;;;;;;;40.35;21.08;;;9.40;99.90;;;;;;5034040;28;20167;-77
2021/11/15 08:57:58;;;;;;;36.72;19.25;;;9.30;99.90;;;;;;5033954;28;20202;-77
2021/11/15 09:00:24;;;;;;;34.40;17.52;;;9.20;99.90;;;;;;5035163;28;20246;-77
2021/11/15 09:02:50;;;;;;;32.83;18.55;;;9.20;99.90;;;;;;5034364;28;20156;-78
2021/11/15 09:05:16;;;;;;;37.25;19.67;;;9.10;99.90;;;;;;5034666;28;20190;-77
2021/11/15 09:07:41;;;;;;;37.17;18.63;;;9.10;99.90;;;;;;5032693;28;20168;-77
2021/11/15 09:10:09;;;;;;;33.08;19.27;;;9.30;99.90;;;;;;5033809;28;20194;-77
2021/11/15 09:12:36;;;;;;;33.38;20.23;;;9.60;99.90;;;;;;5033928;28;20171;-77
2021/11/15 09:15:03;;;;;;;34.70;18.00;;;9.60;99.90;;;;;;5033324;28;20167;-78
2021/11/15 09:17:29;;;;;;;32.67;17.92;;;9.40;99.90;;;;;;5033540;28;20191;-77
2021/11/15 09:19:55;;;;;;;45.05;20.73;;;9.30;99.90;;;;;;5033454;28;20591;-79
2021/11/15 09:22:21;;;;;;;37.10;18.50;;;9.30;99.90;;;;;;5032714;28;20168;-78
2021/11/15 09:24:50;;;;;;;32.67;17.95;;;9.30;99.90;;;;;;5033816;28;20299;-78
2021/11/15 09:27:18;;;;;;;41.03;19.65;;;9.20;99.90;;;;;;5033193;28;20207;-77
2021/11/15 09:29:46;;;;;;;31.23;18.48;;;9.10;99.90;;;;;;5032852;28;20160;-77
2021/11/15 09:32:12;;;;;;;35.65;19.08;;;9.00;99.90;;;;;;5033028;28;20202;-77
2021/11/15 09:34:40;;;;;;;31.35;19.20;;;8.90;99.90;;;;;;5031732;28;20274;-77
2021/11/15 09:37:14;;;;;;;29.35;17.73;;;9.10;99.90;;;;;;5032953;28;20179;-77
2021/11/15 09:39:43;;;;;;;34.63;20.20;;;9.00;99.90;;;;;;5032385;28;20179;-77
2021/11/15 09:42:10;;;;;;;37.40;19.55;;;9.40;99.90;;;;;;5032622;28;20633;-77
2021/11/15 09:44:36;;;;;;;34.85;20.00;;;9.70;99.90;;;;;;5033170;28;20163;-77
2021/11/15 09:47:03;;;;;;;35.33;18.70;;;9.50;99.90;;;;;;5031799;28;20182;-78
2021/11/15 09:49:29;;;;;;;33.13;19.25;;;9.30;99.90;;;;;;5032807;28;20167;-77
2021/11/15 09:51:55;;;;;;;38.08;20.45;;;9.50;99.90;;;;;;5033431;28;20191;-77
2021/11/15 09:54:21;;;;;;;44.83;19.92;;;9.70;99.90;;;;;;5033341;28;20203;-77
2021/11/15 09:56:51;;;;;;;30.77;18.70;;;9.60;99.90;;;;;;5033401;28;20176;-77
2021/11/15 09:59:18;;;;;;;38.40;20.92;;;9.20;99.90;;;;;;5032661;28;20187;-78
2021/11/15 10:01:46;;;;;;;45.47;20.65;;;9.20;99.90;;;;;;5031577;28;20214;-77
2021/11/15 10:04:14;;;;;;;41.33;20.90;;;9.30;99.90;;;;;;5033065;28;20250;-77
2021/11/15 10:06:43;;;;;;;35.75;20.13;;;9.40;99.90;;;;;;5032707;28;20171;-77
2021/11/15 10:09:10;;;;;;;35.10;20.20;;;9.20;99.90;;;;;;5032876;28;20167;-80
2021/11/15 10:11:46;;;;;;;35.53;18.70;;;9.30;99.90;;;;;;5033232;28;20549;-76
2021/11/15 10:14:13;;;;;;;35.97;19.40;;;9.40;99.90;;;;;;5032035;28;20175;-77
2021/11/15 10:16:40;;;;;;;37.35;18.60;;;9.00;99.90;;;;;;5032118;28;20176;-77
2021/11/15 10:19:08;;;;;;;33.58;19.52;;;9.00;99.90;;;;;;5032480;28;20167;-77
2021/11/15 10:21:36;;;;;;;38.75;20.27;;;9.10;99.90;;;;;;5032172;28;20207;-77
2021/11/15 10:24:12;;;;;;;40.22;18.73;;;9.20;99.90;;;;;;5031994;28;20251;-77
2021/11/15 10:27:01;;;;;;;37.38;19.98;;;9.30;99.90;;;;;;5032063;28;20168;-77
2021/11/15 10:29:39;;;;;;;41.83;19.75;;;9.20;99.90;;;;;;5030435;28;20164;-77
2021/11/15 10:32:08;;;;;;;35.70;18.25;;;9.20;99.90;;;;;;5032108;28;20550;-77
2021/11/15 10:34:38;;;;;;;35.33;19.13;;;9.00;99.90;;;;;;5031927;28;20655;-77
2021/11/15 10:37:11;;;;;;;48.65;20.05;;;9.10;99.90;;;;;;5031802;28;20523;-78
2021/11/15 10:39:44;;;;;;;34.58;17.92;;;9.20;99.90;;;;;;5030630;28;20172;-78
2021/11/15 10:42:19;;;;;;;37.70;19.05;;;9.10;99.90;;;;;;5032198;28;20674;-77
2021/11/15 10:44:53;;;;;;;41.40;18.67;;;9.20;99.90;;;;;;5035835;28;20163;-88
2021/11/15 10:47:33;;;;;;;38.88;18.20;;;9.30;99.90;;;;;;5034336;28;20172;-77
2021/11/15 10:50:02;;;;;;;36.35;19.70;;;9.30;99.90;;;;;;5034450;28;20241;-82
2021/11/15 10:52:28;;;;;;;38.50;19.33;;;9.20;99.90;;;;;;5032728;28;20265;-78
2021/11/15 10:55:04;;;;;;;35.38;18.52;;;9.30;99.90;;;;;;5035051;28;20168;-92
2021/11/15 10:57:30;;;;;;;35.17;18.67;;;9.20;99.90;;;;;;5030874;28;20163;-82
2021/11/15 11:00:05;;;;;;;30.90;17.20;;;9.20;99.90;;;;;;5034651;28;20207;-89
2021/11/15 11:02:36;;;;;;;33.47;18.95;;;8.90;99.90;;;;;;5035993;28;20175;-91
2021/11/15 11:05:23;;;;;;;39.10;18.35;;;9.10;99.90;;;;;;5033335;28;20195;-77
2021/11/15 11:08:02;;;;;;;33.13;18.83;;;9.00;99.90;;;;;;5016365;28;20168;-77
2021/11/15 11:10:31;;;;;;;32.15;17.88;;;8.90;99.90;;;;;;5031602;28;20195;-79
2021/11/15 11:13:04;;;;;;;27.63;16.30;;;9.00;99.90;;;;;;5036204;28;20650;-81
2021/11/15 11:15:47;;;;;;;33.83;18.45;;;9.00;99.90;;;;;;5034827;28;20230;-77
2021/11/15 11:23:57;;;;;;;29.98;15.43;;;8.80;99.90;;;;;;5035047;28;20172;-77
2021/11/15 11:26:19;;;;;;;27.13;16.73;;;8.90;99.90;;;;;;5034424;28;20184;-77
2021/11/15 11:28:54;;;;;;;38.45;17.88;;;8.70;99.90;;;;;;5034886;28;20519;-78
2021/11/15 11:31:20;;;;;;;37.05;18.92;;;8.70;99.90;;;;;;5033601;28;20191;-79
2021/11/15 11:33:46;;;;;;;34.00;19.15;;;8.80;99.90;;;;;;5035139;28;20539;-80
2021/11/15 11:36:12;;;;;;;35.55;18.25;;;8.90;99.90;;;;;;5034454;28;20164;-78
2021/11/15 11:38:40;;;;;;;31.95;17.80;;;9.20;99.90;;;;;;5034652;28;20175;-78
2021/11/15 11:41:07;;;;;;;33.72;17.98;;;9.20;99.90;;;;;;5034466;28;20566;-77
2021/11/15 11:43:33;;;;;;;33.20;18.15;;;9.00;99.90;;;;;;5034622;28;20166;-79
2021/11/15 11:45:59;;;;;;;34.17;17.80;;;8.90;99.90;;;;;;5034236;28;20168;-77
2021/11/15 11:48:26;;;;;;;37.45;19.65;;;9.00;99.90;;;;;;5034725;28;20164;-77
2021/11/15 11:50:54;;;;;;;36.95;19.15;;;8.90;99.90;;;;;;5034352;28;20611;-78
2021/11/15 11:53:28;;;;;;;32.45;18.25;;;8.80;99.90;;;;;;5034508;28;20160;-77
2021/11/15 11:55:57;;;;;;;30.48;18.05;;;8.90;99.90;;;;;;5034387;28;20171;-77
2021/11/15 11:58:32;;;;;;;37.20;17.92;;;8.90;99.90;;;;;;5034244;28;20255;-76
2021/11/15 12:01:13;;;;;;;32.33;17.73;;;8.80;99.90;;;;;;5034007;28;20217;-82
2021/11/15 12:03:39;;;;;;;32.30;16.90;;;8.90;99.90;;;;;;5033950;28;20628;-78
2021/11/15 12:06:29;;;;;;;32.78;17.15;;;8.90;99.90;;;;;;5032880;28;20184;-85
2021/11/15 12:08:56;;;;;;;32.28;17.00;;;8.90;99.90;;;;;;5015575;28;20168;-82
2021/11/15 12:11:28;;;;;;;34.55;17.55;;;8.90;99.90;;;;;;5015118;28;20228;-84
2021/11/15 12:13:54;;;;;;;31.50;17.15;;;8.90;99.90;;;;;;5014943;28;20203;-82
2021/11/15 12:16:20;;;;;;;33.50;16.70;;;9.10;99.90;;;;;;5024613;28;20606;-78
2021/11/15 12:19:01;;;;;;;36.47;18.42;;;9.00;99.90;;;;;;5032705;28;20168;-85
2021/11/15 12:21:34;;;;;;;35.75;18.67;;;9.10;99.90;;;;;;5034120;28;20203;-84
2021/11/15 12:24:05;;;;;;;33.15;17.80;;;9.30;99.90;;;;;;5033391;28;20168;-88
2021/11/15 12:26:43;;;;;;;35.75;17.35;;;9.10;99.90;;;;;;5033726;28;20271;-82
2021/11/15 12:29:30;;;;;;;30.20;16.20;;;9.30;99.90;;;;;;5033599;28;20250;-81
2021/11/15 12:32:03;;;;;;;36.13;18.42;;;9.10;99.90;;;;;;5032745;28;20254;-78
2021/11/15 12:34:32;;;;;;;41.00;18.25;;;9.20;99.90;;;;;;5034167;28;20258;-79
2021/11/15 12:36:59;;;;;;;38.45;20.08;;;9.00;99.90;;;;;;5034217;28;20172;-86
2021/11/15 12:39:42;;;;;;;34.85;17.75;;;8.90;99.90;;;;;;5034800;28;20168;-87
2021/11/15 12:42:24;;;;;;;32.08;17.55;;;9.00;99.90;;;;;;5034182;28;20253;-83
2021/11/15 12:45:18;;;;;;;33.78;19.13;;;9.00;99.90;;;;;;5033431;28;20209;-80